sensor_id;sensor_type;location;lat;lon;timestamp;pressure;altitude;pressure_sealevel;temperature;humidity
47054;BME280;32811;52.382;5.270;2022-11-04T00:02:29;99991.38;;;9.91;100.00
47054;BME280;32811;52.382;5.270;2022-11-04T00:04:57;100001.66;;;9.96;100.00
47054;BME280;32811;52.382;5.270;2022-11-04T00:07:27;100001.69;;;9.91;100.00
47054;BME280;32811;52.382;5.270;2022-11-04T00:10:12;99997.38;;;9.90;100.00
47054;BME280;32811;52.382;5.270;2022-11-04T00:12:39;100008.53;;;9.94;100.00
47054;BME280;32811;52.382;5.270;2022-11-04T00:15:09;100017.09;;;10.01;100.00
47054;BME280;32811;52.382;5.270;2022-11-04T00:17:55;100021.38;;;9.95;100.00
47054;BME280;32811;52.382;5.270;2022-11-04T00:20:21;100019.69;;;9.96;100.00
47054;BME280;32811;52.382;5.270;2022-11-04T00:23:06;100024.81;;;9.99;100.00
47054;BME280;32811;52.382;5.270;2022-11-04T00:29:33;100024.81;;;9.99;100.00
47054;BME280;32811;52.382;5.270;2022-11-04T00:32:00;100037.75;;;9.96;100.00
47054;BME280;32811;52.382;5.270;2022-11-04T00:34:45;100035.19;;;9.90;100.00
47054;BME280;32811;52.382;5.270;2022-11-04T00:37:12;100047.22;;;9.89;100.00
47054;BME280;32811;52.382;5.270;2022-11-04T00:39:38;100052.38;;;9.88;100.00
47054;BME280;32811;52.382;5.270;2022-11-04T00:42:05;100056.69;;;9.86;100.00
47054;BME280;32811;52.382;5.270;2022-11-04T00:44:32;100055.81;;;9.90;100.00
47054;BME280;32811;52.382;5.270;2022-11-04T00:47:00;100061.84;;;9.84;100.00
47054;BME280;32811;52.382;5.270;2022-11-04T00:49:26;100067.88;;;9.83;100.00
47054;BME280;32811;52.382;5.270;2022-11-04T00:51:54;100062.72;;;9.82;100.00
47054;BME280;32811;52.382;5.270;2022-11-04T00:54:20;100064.47;;;9.76;100.00
47054;BME280;32811;52.382;5.270;2022-11-04T00:56:47;100077.34;;;9.83;100.00
47054;BME280;32811;52.382;5.270;2022-11-04T00:59:14;100074.75;;;9.81;100.00
47054;BME280;32811;52.382;5.270;2022-11-04T01:01:41;100076.44;;;9.82;100.00
47054;BME280;32811;52.382;5.270;2022-11-04T01:04:09;100079.91;;;9.83;100.00
47054;BME280;32811;52.382;5.270;2022-11-04T01:06:35;100087.63;;;9.80;100.00
47054;BME280;32811;52.382;5.270;2022-11-04T01:09:05;100093.66;;;9.77;100.00
47054;BME280;32811;52.382;5.270;2022-11-04T01:11:33;100102.22;;;9.82;100.00
47054;BME280;32811;52.382;5.270;2022-11-04T01:14:00;100100.53;;;9.81;100.00
47054;BME280;32811;52.382;5.270;2022-11-04T01:16:27;100099.66;;;9.77;100.00
47054;BME280;32811;52.382;5.270;2022-11-04T01:18:54;100106.56;;;9.75;100.00
47054;BME280;32811;52.382;5.270;2022-11-04T01:21:21;100109.16;;;9.71;100.00
47054;BME280;32811;52.382;5.270;2022-11-04T01:23:47;100105.75;;;9.67;100.00
47054;BME280;32811;52.382;5.270;2022-11-04T01:26:17;100114.31;;;9.72;100.00
47054;BME280;32811;52.382;5.270;2022-11-04T01:28:45;100116.03;;;9.64;100.00
47054;BME280;32811;52.382;5.270;2022-11-04T01:31:17;100129.81;;;9.62;100.00
47054;BME280;32811;52.382;5.270;2022-11-04T01:33:46;100137.56;;;9.60;100.00
47054;BME280;32811;52.382;5.270;2022-11-04T01:36:13;100142.69;;;9.57;100.00
47054;BME280;32811;52.382;5.270;2022-11-04T01:38:40;100148.72;;;9.50;100.00
47054;BME280;32811;52.382;5.270;2022-11-04T01:41:08;100153.00;;;9.51;100.00
47054;BME280;32811;52.382;5.270;2022-11-04T01:43:52;100153.88;;;9.51;100.00
47054;BME280;32811;52.382;5.270;2022-11-04T01:49:07;100159.91;;;9.52;100.00
47054;BME280;32811;52.382;5.270;2022-11-04T01:51:39;100177.94;;;9.53;100.00
47054;BME280;32811;52.382;5.270;2022-11-04T01:54:09;100171.03;;;9.52;100.00
47054;BME280;32811;52.382;5.270;2022-11-04T01:56:39;100172.75;;;9.50;100.00
47054;BME280;32811;52.382;5.270;2022-11-04T01:59:14;100175.38;;;9.43;100.00
47054;BME280;32811;52.382;5.270;2022-11-04T02:01:44;100179.66;;;9.39;100.00
47054;BME280;32811;52.382;5.270;2022-11-04T02:04:12;100175.38;;;9.27;100.00
47054;BME280;32811;52.382;5.270;2022-11-04T02:06:57;100183.13;;;9.23;100.00
47054;BME280;32811;52.382;5.270;2022-11-04T02:09:27;100184.84;;;9.16;100.00
47054;BME280;32811;52.382;5.270;2022-11-04T02:11:54;100183.09;;;9.10;100.00
47054;BME280;32811;52.382;5.270;2022-11-04T02:14:39;100192.56;;;9.10;100.00
47054;BME280;32811;52.382;5.270;2022-11-04T02:20:00;100208.00;;;9.10;100.00
47054;BME280;32811;52.382;5.270;2022-11-04T02:30:20;100223.44;;;9.13;100.00
47054;BME280;32811;52.382;5.270;2022-11-04T02:41:13;100244.03;;;9.28;100.00
47054;BME280;32811;52.382;5.270;2022-11-04T02:49:19;100234.63;;;9.04;100.00
47054;BME280;32811;52.382;5.270;2022-11-04T02:51:49;100262.06;;;9.05;100.00
47054;BME280;32811;52.382;5.270;2022-11-04T02:54:37;100264.63;;;8.91;100.00
47054;BME280;32811;52.382;5.270;2022-11-04T02:57:11;100256.84;;;8.75;100.00
47054;BME280;32811;52.382;5.270;2022-11-04T02:59:48;100274.84;;;8.67;100.00
47054;BME280;32811;52.382;5.270;2022-11-04T03:02:28;100270.53;;;8.54;100.00
47054;BME280;32811;52.382;5.270;2022-11-04T03:04:57;100253.25;;;8.37;100.00
47054;BME280;32811;52.382;5.270;2022-11-04T03:07:28;100262.69;;;8.30;100.00
47054;BME280;32811;52.382;5.270;2022-11-04T03:10:01;100257.50;;;8.23;100.00
47054;BME280;32811;52.382;5.270;2022-11-04T03:12:38;100254.09;;;8.27;100.00
47054;BME280;32811;52.382;5.270;2022-11-04T03:15:11;100242.94;;;8.17;100.00
47054;BME280;32811;52.382;5.270;2022-11-04T03:17:49;100252.31;;;8.12;100.00
47054;BME280;32811;52.382;5.270;2022-11-04T03:20:20;100266.88;;;8.15;100.00
47054;BME280;32811;52.382;5.270;2022-11-04T03:22:47;100264.31;;;8.11;100.00
47054;BME280;32811;52.382;5.270;2022-11-04T03:25:15;100262.56;;;8.04;100.00
47054;BME280;32811;52.382;5.270;2022-11-04T03:27:47;100285.75;;;8.21;100.00
47054;BME280;32811;52.382;5.270;2022-11-04T03:30:19;100291.78;;;8.22;100.00
47054;BME280;32811;52.382;5.270;2022-11-04T03:33:11;100292.63;;;8.22;100.00
47054;BME280;32811;52.382;5.270;2022-11-04T03:35:44;100295.19;;;8.21;100.00
47054;BME280;32811;52.382;5.270;2022-11-04T03:38:11;100292.59;;;8.13;100.00
47054;BME280;32811;52.382;5.270;2022-11-04T03:40:38;100294.34;;;8.17;100.00
47054;BME280;32811;52.382;5.270;2022-11-04T03:43:09;100300.34;;;8.21;100.00
47054;BME280;32811;52.382;5.270;2022-11-04T03:45:38;100303.78;;;8.20;100.00
47054;BME280;32811;52.382;5.270;2022-11-04T03:48:04;100296.03;;;8.14;100.00
47054;BME280;32811;52.382;5.270;2022-11-04T03:50:38;100304.56;;;8.13;100.00
47054;BME280;32811;52.382;5.270;2022-11-04T03:53:06;100311.44;;;8.17;100.00
47054;BME280;32811;52.382;5.270;2022-11-04T03:55:58;100318.28;;;8.15;100.00
47054;BME280;32811;52.382;5.270;2022-11-04T04:04:04;100326.78;;;8.01;100.00
47054;BME280;32811;52.382;5.270;2022-11-04T04:06:35;100316.47;;;7.95;100.00
47054;BME280;32811;52.382;5.270;2022-11-04T04:09:17;100318.13;;;7.90;100.00
47054;BME280;32811;52.382;5.270;2022-11-04T04:14:22;100301.75;;;7.73;100.00
47054;BME280;32811;52.382;5.270;2022-11-04T04:17:26;100328.41;;;7.84;100.00
47054;BME280;32811;52.382;5.270;2022-11-04T04:20:08;100329.22;;;7.80;100.00
47054;BME280;32811;52.382;5.270;2022-11-04T04:22:44;100334.31;;;7.77;100.00
47054;BME280;32811;52.382;5.270;2022-11-04T04:25:14;100348.03;;;7.79;100.00
47054;BME280;32811;52.382;5.270;2022-11-04T04:28:01;100353.19;;;7.77;100.00
47054;BME280;32811;52.382;5.270;2022-11-04T04:30:29;100355.75;;;7.77;100.00
47054;BME280;32811;52.382;5.270;2022-11-04T04:33:00;100359.19;;;7.79;100.00
47054;BME280;32811;52.382;5.270;2022-11-04T04:35:34;100366.00;;;7.79;100.00
47054;BME280;32811;52.382;5.270;2022-11-04T04:38:16;100362.59;;;7.78;100.00
47054;BME280;32811;52.382;5.270;2022-11-04T04:41:25;100362.56;;;7.74;100.00
47054;BME280;32811;52.382;5.270;2022-11-04T04:44:22;100372.03;;;7.81;100.00
47054;BME280;32811;52.382;5.270;2022-11-04T04:47:08;100384.94;;;7.87;100.00
47054;BME280;32811;52.382;5.270;2022-11-04T04:49:36;100395.22;;;7.90;100.00
47054;BME280;32811;52.382;5.270;2022-11-04T04:52:14;100385.88;;;7.98;100.00
47054;BME280;32811;52.382;5.270;2022-11-04T04:54:41;100391.06;;;8.06;100.00
47054;BME280;32811;52.382;5.270;2022-11-04T04:57:07;100393.69;;;8.10;100.00
47054;BME280;32811;52.382;5.270;2022-11-04T04:59:34;100399.72;;;8.16;100.00
47054;BME280;32811;52.382;5.270;2022-11-04T05:02:00;100394.59;;;8.19;100.00
47054;BME280;32811;52.382;5.270;2022-11-04T05:04:27;100395.47;;;8.21;100.00
47054;BME280;32811;52.382;5.270;2022-11-04T05:06:54;100391.19;;;8.26;100.00
47054;BME280;32811;52.382;5.270;2022-11-04T05:09:21;100394.63;;;8.23;100.00
47054;BME280;32811;52.382;5.270;2022-11-04T05:11:48;100392.06;;;8.28;100.00
47054;BME280;32811;52.382;5.270;2022-11-04T05:14:17;100390.34;;;8.25;100.00
47054;BME280;32811;52.382;5.270;2022-11-04T05:16:44;100383.50;;;8.27;100.00
47054;BME280;32811;52.382;5.270;2022-11-04T05:19:10;100389.53;;;8.31;100.00
47054;BME280;32811;52.382;5.270;2022-11-04T05:21:37;100386.06;;;8.27;100.00
47054;BME280;32811;52.382;5.270;2022-11-04T05:24:04;100386.97;;;8.31;100.00
47054;BME280;32811;52.382;5.270;2022-11-04T05:26:31;100400.69;;;8.33;100.00
47054;BME280;32811;52.382;5.270;2022-11-04T05:28:57;100398.97;;;8.32;100.00
47054;BME280;32811;52.382;5.270;2022-11-04T05:31:24;100393.81;;;8.30;100.00
47054;BME280;32811;52.382;5.270;2022-11-04T05:33:51;100401.56;;;8.34;100.00
47054;BME280;32811;52.382;5.270;2022-11-04T05:36:18;100392.94;;;8.28;100.00
47054;BME280;32811;52.382;5.270;2022-11-04T05:38:49;100403.25;;;8.35;100.00
47054;BME280;32811;52.382;5.270;2022-11-04T05:41:16;100398.13;;;8.33;100.00
47054;BME280;32811;52.382;5.270;2022-11-04T05:43:59;100390.38;;;8.28;100.00
47054;BME280;32811;52.382;5.270;2022-11-04T05:46:26;100400.69;;;8.35;100.00
47054;BME280;32811;52.382;5.270;2022-11-04T05:48:53;100398.13;;;8.36;100.00
47054;BME280;32811;52.382;5.270;2022-11-04T05:51:23;100400.72;;;8.38;100.00
47054;BME280;32811;52.382;5.270;2022-11-04T05:53:51;100405.84;;;8.36;100.00
47054;BME280;32811;52.382;5.270;2022-11-04T05:56:17;100411.00;;;8.36;100.00
47054;BME280;32811;52.382;5.270;2022-11-04T05:58:44;100386.91;;;8.23;100.00
47054;BME280;32811;52.382;5.270;2022-11-04T06:01:34;100415.34;;;8.40;100.00
47054;BME280;32811;52.382;5.270;2022-11-04T06:04:03;100417.03;;;8.41;100.00
47054;BME280;32811;52.382;5.270;2022-11-04T06:06:34;100422.19;;;8.41;100.00
47054;BME280;32811;52.382;5.270;2022-11-04T06:09:02;100429.00;;;8.39;100.00
47054;BME280;32811;52.382;5.270;2022-11-04T06:11:29;100434.13;;;8.36;100.00
47054;BME280;32811;52.382;5.270;2022-11-04T06:13:57;100434.13;;;8.36;100.00
47054;BME280;32811;52.382;5.270;2022-11-04T06:16:25;100417.78;;;8.28;100.00
47054;BME280;32811;52.382;5.270;2022-11-04T06:18:52;100439.28;;;8.33;100.00
47054;BME280;32811;52.382;5.270;2022-11-04T06:21:26;100422.91;;;8.23;100.00
47054;BME280;32811;52.382;5.270;2022-11-04T06:23:54;100440.94;;;8.29;100.00
47054;BME280;32811;52.382;5.270;2022-11-04T06:26:26;100440.00;;;8.21;100.00
47054;BME280;32811;52.382;5.270;2022-11-04T06:28:54;100454.63;;;8.24;100.00
47054;BME280;32811;52.382;5.270;2022-11-04T06:31:22;100455.44;;;8.20;100.00
47054;BME280;32811;52.382;5.270;2022-11-04T06:33:49;100458.88;;;8.23;100.00
47054;BME280;32811;52.382;5.270;2022-11-04T06:36:16;100452.88;;;8.20;100.00
47054;BME280;32811;52.382;5.270;2022-11-04T06:38:43;100453.72;;;8.19;100.00
47054;BME280;32811;52.382;5.270;2022-11-04T06:41:12;100453.75;;;8.23;100.00
47054;BME280;32811;52.382;5.270;2022-11-04T06:43:39;100452.00;;;8.18;100.00
47054;BME280;32811;52.382;5.270;2022-11-04T06:46:23;100460.63;;;8.26;100.00
47054;BME280;32811;52.382;5.270;2022-11-04T06:48:51;100453.78;;;8.26;100.00
47054;BME280;32811;52.382;5.270;2022-11-04T06:51:18;100455.56;;;8.35;100.00
47054;BME280;32811;52.382;5.270;2022-11-04T06:53:44;100451.25;;;8.34;100.00
47054;BME280;32811;52.382;5.270;2022-11-04T06:56:11;100470.19;;;8.41;100.00
47054;BME280;32811;52.382;5.270;2022-11-04T06:58:38;100475.38;;;8.42;100.00
47054;BME280;32811;52.382;5.270;2022-11-04T07:01:04;100470.22;;;8.42;100.00
47054;BME280;32811;52.382;5.270;2022-11-04T07:03:41;100473.66;;;8.43;100.00
47054;BME280;32811;52.382;5.270;2022-11-04T07:06:09;100482.22;;;8.43;100.00
47054;BME280;32811;52.382;5.270;2022-11-04T07:08:36;100489.09;;;8.44;100.00
47054;BME280;32811;52.382;5.270;2022-11-04T07:11:03;100497.66;;;8.45;100.00
47054;BME280;32811;52.382;5.270;2022-11-04T07:13:29;100491.63;;;8.41;100.00
47054;BME280;32811;52.382;5.270;2022-11-04T07:15:56;100489.00;;;8.38;100.00
47054;BME280;32811;52.382;5.270;2022-11-04T07:18:23;100498.50;;;8.42;100.00
47054;BME280;32811;52.382;5.270;2022-11-04T07:20:50;100507.06;;;8.43;100.00
47054;BME280;32811;52.382;5.270;2022-11-04T07:23:17;100513.94;;;8.45;100.00
47054;BME280;32811;52.382;5.270;2022-11-04T07:25:43;100514.72;;;8.38;100.00
47054;BME280;32811;52.382;5.270;2022-11-04T07:28:10;100518.22;;;8.42;100.00
47054;BME280;32811;52.382;5.270;2022-11-04T07:30:37;100516.44;;;8.36;100.00
47054;BME280;32811;52.382;5.270;2022-11-04T07:33:04;100506.06;;;8.27;100.00
47054;BME280;32811;52.382;5.270;2022-11-04T07:35:31;100550.72;;;8.38;100.00
47054;BME280;32811;52.382;5.270;2022-11-04T07:37:58;100531.00;;;8.37;100.00
47054;BME280;32811;52.382;5.270;2022-11-04T07:40:25;100540.56;;;8.47;100.00
47054;BME280;32811;52.382;5.270;2022-11-04T07:42:52;100552.56;;;8.50;100.00
47054;BME280;32811;52.382;5.270;2022-11-04T07:45:18;100552.66;;;8.58;100.00
47054;BME280;32811;52.382;5.270;2022-11-04T07:47:45;100534.59;;;8.53;100.00
47054;BME280;32811;52.382;5.270;2022-11-04T07:50:11;100548.38;;;8.63;100.00
47054;BME280;32811;52.382;5.270;2022-11-04T07:52:38;100559.63;;;8.77;100.00
47054;BME280;32811;52.382;5.270;2022-11-04T07:55:06;100575.22;;;8.94;100.00
47054;BME280;32811;52.382;5.270;2022-11-04T07:57:32;100569.25;;;9.01;100.00
47054;BME280;32811;52.382;5.270;2022-11-04T07:59:59;100577.84;;;9.05;100.00
47054;BME280;32811;52.382;5.270;2022-11-04T08:02:26;100563.25;;;9.02;100.00
47054;BME280;32811;52.382;5.270;2022-11-04T08:05:00;100571.94;;;9.18;100.00
47054;BME280;32811;52.382;5.270;2022-11-04T08:07:26;100576.22;;;9.19;100.00
47054;BME280;32811;52.382;5.270;2022-11-04T08:09:53;100568.50;;;9.21;100.00
47054;BME280;32811;52.382;5.270;2022-11-04T08:12:20;100581.44;;;9.34;100.00
47054;BME280;32811;52.382;5.270;2022-11-04T08:14:50;100574.63;;;9.41;100.00
47054;BME280;32811;52.382;5.270;2022-11-04T08:17:16;100583.28;;;9.54;100.00
47054;BME280;32811;52.382;5.270;2022-11-04T08:19:43;100575.56;;;9.59;100.00
47054;BME280;32811;52.382;5.270;2022-11-04T08:22:10;100591.94;;;9.70;100.00
47054;BME280;32811;52.382;5.270;2022-11-04T08:24:36;100585.03;;;9.69;100.00
47054;BME280;32811;52.382;5.270;2022-11-04T08:27:06;100589.34;;;9.68;100.00
47054;BME280;32811;52.382;5.270;2022-11-04T08:29:34;100586.72;;;9.62;100.00
47054;BME280;32811;52.382;5.270;2022-11-04T08:32:00;100594.47;;;9.61;100.00
47054;BME280;32811;52.382;5.270;2022-11-04T08:34:27;100589.31;;;9.61;100.00
47054;BME280;32811;52.382;5.270;2022-11-04T08:36:54;100596.22;;;9.68;100.00
47054;BME280;32811;52.382;5.270;2022-11-04T08:39:23;100600.50;;;9.69;100.00
47054;BME280;32811;52.382;5.270;2022-11-04T08:41:49;100581.56;;;9.54;100.00
47054;BME280;32811;52.382;5.270;2022-11-04T08:44:19;100597.06;;;9.68;100.00
47054;BME280;32811;52.382;5.270;2022-11-04T08:46:46;100598.78;;;9.66;100.00
47054;BME280;32811;52.382;5.270;2022-11-04T08:49:13;100596.22;;;9.72;100.00
47054;BME280;32811;52.382;5.270;2022-11-04T08:51:47;100602.25;;;9.71;100.00
47054;BME280;32811;52.382;5.270;2022-11-04T08:54:20;100601.38;;;9.68;100.00
47054;BME280;32811;52.382;5.270;2022-11-04T08:56:46;100599.63;;;9.61;100.00
47054;BME280;32811;52.382;5.270;2022-11-04T08:59:13;100611.66;;;9.60;100.00
47054;BME280;32811;52.382;5.270;2022-11-04T09:01:41;100611.66;;;9.60;100.00
47054;BME280;32811;52.382;5.270;2022-11-04T09:04:09;100621.06;;;9.55;100.00
47054;BME280;32811;52.382;5.270;2022-11-04T09:06:39;100621.06;;;9.52;100.00
47054;BME280;32811;52.382;5.270;2022-11-04T09:09:08;100621.94;;;9.57;100.00
47054;BME280;32811;52.382;5.270;2022-11-04T09:11:37;100630.53;;;9.56;100.00
47054;BME280;32811;52.382;5.270;2022-11-04T09:14:04;100622.78;;;9.54;100.00
47054;BME280;32811;52.382;5.270;2022-11-04T09:16:33;100633.94;;;9.55;100.00
47054;BME280;32811;52.382;5.270;2022-11-04T09:19:00;100635.69;;;9.64;100.00
47054;BME280;32811;52.382;5.270;2022-11-04T09:21:27;100634.88;;;9.65;100.00
47054;BME280;32811;52.382;5.270;2022-11-04T09:23:54;100636.56;;;9.69;100.00
47054;BME280;32811;52.382;5.270;2022-11-04T09:26:22;100637.41;;;9.60;100.00
47054;BME280;32811;52.382;5.270;2022-11-04T09:28:56;100648.66;;;9.76;100.00
47054;BME280;32811;52.382;5.270;2022-11-04T09:31:24;100654.66;;;9.76;100.00
47054;BME280;32811;52.382;5.270;2022-11-04T09:33:52;100649.53;;;9.84;100.00
47054;BME280;32811;52.382;5.270;2022-11-04T09:36:19;100661.59;;;9.90;100.00
47054;BME280;32811;52.382;5.270;2022-11-04T09:38:46;100671.03;;;9.91;100.00
47054;BME280;32811;52.382;5.270;2022-11-04T09:45:06;100676.25;;;9.94;100.00
47054;BME280;32811;52.382;5.270;2022-11-04T09:47:31;100690.03;;;10.08;100.00
47054;BME280;32811;52.382;5.270;2022-11-04T09:50:00;100687.50;;;10.11;100.00
47054;BME280;32811;52.382;5.270;2022-11-04T09:52:33;100690.94;;;10.19;100.00
47054;BME280;32811;52.382;5.270;2022-11-04T09:55:06;100692.66;;;10.16;100.00
47054;BME280;32811;52.382;5.270;2022-11-04T09:57:35;100696.94;;;10.15;100.00
47054;BME280;32811;52.382;5.270;2022-11-04T10:00:03;100696.97;;;10.25;100.00
47054;BME280;32811;52.382;5.270;2022-11-04T10:21:56;100721.16;;;10.47;100.00
47054;BME280;32811;52.382;5.270;2022-11-04T10:24:35;100730.66;;;10.58;100.00
47054;BME280;32811;52.382;5.270;2022-11-04T10:27:14;100716.84;;;10.49;100.00
47054;BME280;32811;52.382;5.270;2022-11-04T10:29:44;100726.38;;;10.64;100.00
47054;BME280;32811;52.382;5.270;2022-11-04T10:32:17;100737.53;;;10.59;100.00
47054;BME280;32811;52.382;5.270;2022-11-04T10:37:33;100751.31;;;10.65;100.00
47054;BME280;32811;52.382;5.270;2022-11-04T10:42:38;100753.03;;;10.63;100.00
47054;BME280;32811;52.382;5.270;2022-11-04T10:45:09;100760.78;;;10.73;100.00
47054;BME280;32811;52.382;5.270;2022-11-04T10:53:13;100761.69;;;10.94;100.00
47054;BME280;32811;52.382;5.270;2022-11-04T10:58:24;100767.75;;;11.04;100.00
47054;BME280;32811;52.382;5.270;2022-11-04T11:00:52;100769.50;;;11.12;100.00
47054;BME280;32811;52.382;5.270;2022-11-04T11:03:27;100778.09;;;11.28;100.00
47054;BME280;32811;52.382;5.270;2022-11-04T11:06:10;100765.19;;;11.24;100.00
47054;BME280;32811;52.382;5.270;2022-11-04T11:08:38;100771.22;;;11.39;100.00
47054;BME280;32811;52.382;5.270;2022-11-04T11:11:07;100760.88;;;11.42;100.00
47054;BME280;32811;52.382;5.270;2022-11-04T11:13:37;100780.69;;;11.56;100.00
47054;BME280;32811;52.382;5.270;2022-11-04T11:21:58;100800.50;;;11.40;100.00
47054;BME280;32811;52.382;5.270;2022-11-04T11:24:27;100812.56;;;11.46;100.00
47054;BME280;32811;52.382;5.270;2022-11-04T11:26:58;100808.25;;;11.29;100.00
47054;BME280;32811;52.382;5.270;2022-11-04T11:29:29;100816.84;;;11.50;100.00
47054;BME280;32811;52.382;5.270;2022-11-04T11:31:58;100809.13;;;11.47;100.00
47054;BME280;32811;52.382;5.270;2022-11-04T11:34:36;100814.28;;;11.56;100.00
47054;BME280;32811;52.382;5.270;2022-11-04T11:37:20;100813.41;;;11.69;100.00
47054;BME280;32811;52.382;5.270;2022-11-04T11:39:49;100807.38;;;11.72;100.00
47054;BME280;32811;52.382;5.270;2022-11-04T11:42:16;100797.03;;;11.76;100.00
47054;BME280;32811;52.382;5.270;2022-11-04T11:44:51;100797.03;;;11.87;100.00
47054;BME280;32811;52.382;5.270;2022-11-04T11:52:40;100803.09;;;11.60;100.00
47054;BME280;32811;52.382;5.270;2022-11-04T12:00:48;100813.44;;;11.32;100.00
47054;BME280;32811;52.382;5.270;2022-11-04T12:06:35;100821.16;;;11.63;100.00
47054;BME280;32811;52.382;5.270;2022-11-04T12:10:12;100829.78;;;11.85;100.00
47054;BME280;32811;52.382;5.270;2022-11-04T12:25:26;100847.03;;;11.60;100.00
47054;BME280;32811;52.382;5.270;2022-11-04T12:36:45;100865.13;;;11.61;100.00
47054;BME280;32811;52.382;5.270;2022-11-04T12:39:24;100864.28;;;11.55;100.00
47054;BME280;32811;52.382;5.270;2022-11-04T12:42:16;100871.16;;;11.39;100.00
47054;BME280;32811;52.382;5.270;2022-11-04T12:47:45;100877.13;;;11.15;100.00
47054;BME280;32811;52.382;5.270;2022-11-04T12:56:18;100903.25;;;10.11;100.00
47054;BME280;32811;52.382;5.270;2022-11-04T12:58:57;100923.66;;;9.86;100.00
47054;BME280;32811;52.382;5.270;2022-11-04T13:01:38;100920.91;;;9.66;100.00
47054;BME280;32811;52.382;5.270;2022-11-04T13:04:17;100931.03;;;9.48;100.00
47054;BME280;32811;52.382;5.270;2022-11-04T13:06:59;100918.81;;;9.28;100.00
47054;BME280;32811;52.382;5.270;2022-11-04T13:09:31;100929.19;;;9.34;100.00
47054;BME280;32811;52.382;5.270;2022-11-04T13:12:08;100917.94;;;9.26;100.00
47054;BME280;32811;52.382;5.270;2022-11-04T13:14:44;100928.28;;;9.29;100.00
47054;BME280;32811;52.382;5.270;2022-11-04T13:17:17;100924.91;;;9.37;100.00
47054;BME280;32811;52.382;5.270;2022-11-04T13:19:52;100905.97;;;9.31;100.00
47054;BME280;32811;52.382;5.270;2022-11-04T13:22:30;100920.66;;;9.39;100.00
47054;BME280;32811;52.382;5.270;2022-11-04T13:25:43;100912.91;;;9.37;100.00
47054;BME280;32811;52.382;5.270;2022-11-04T13:28:12;100922.41;;;9.43;100.00
47054;BME280;32811;52.382;5.270;2022-11-04T13:31:07;100928.28;;;9.31;100.00
47054;BME280;32811;52.382;5.270;2022-11-04T13:33:53;100931.84;;;9.44;100.00
47054;BME280;32811;52.382;5.270;2022-11-04T13:39:34;100932.09;;;9.68;100.00
47054;BME280;32811;52.382;5.270;2022-11-04T13:44:46;100946.88;;;9.85;100.00
47054;BME280;32811;52.382;5.270;2022-11-04T13:47:21;100948.66;;;9.95;100.00
47054;BME280;32811;52.382;5.270;2022-11-04T13:49:51;100951.34;;;10.03;100.00
47054;BME280;32811;52.382;5.270;2022-11-04T13:52:24;100953.97;;;10.13;100.00
47054;BME280;32811;52.382;5.270;2022-11-04T13:57:25;100952.38;;;10.28;100.00
47054;BME280;32811;52.382;5.270;2022-11-04T14:18:51;100977.81;;;9.85;100.00
47054;BME280;32811;52.382;5.270;2022-11-04T14:21:26;100982.94;;;9.80;100.00
47054;BME280;32811;52.382;5.270;2022-11-04T14:23:56;100979.41;;;9.75;100.00
47054;BME280;32811;52.382;5.270;2022-11-04T14:26:27;100980.22;;;9.68;100.00
47054;BME280;32811;52.382;5.270;2022-11-04T14:29:01;100980.97;;;9.59;100.00
47054;BME280;32811;52.382;5.270;2022-11-04T14:31:36;100992.97;;;9.57;100.00
47054;BME280;32811;52.382;5.270;2022-11-04T14:34:04;100979.16;;;9.49;100.00
47054;BME280;32811;52.382;5.270;2022-11-04T14:36:36;100992.06;;;9.52;100.00
47054;BME280;32811;52.382;5.270;2022-11-04T14:44:12;101000.47;;;9.35;100.00
47054;BME280;32811;52.382;5.270;2022-11-04T14:46:43;100997.72;;;9.20;100.00
47054;BME280;32811;52.382;5.270;2022-11-04T14:52:31;101020.84;;;9.16;100.00
47054;BME280;32811;52.382;5.270;2022-11-04T14:55:05;101014.69;;;9.06;100.00
47054;BME280;32811;52.382;5.270;2022-11-04T14:57:44;101024.97;;;9.06;100.00
47054;BME280;32811;52.382;5.270;2022-11-04T15:03:26;101024.84;;;8.97;100.00
47054;BME280;32811;52.382;5.270;2022-11-04T15:06:11;101036.84;;;8.94;100.00
47054;BME280;32811;52.382;5.270;2022-11-04T15:08:43;101028.16;;;8.88;100.00
47054;BME280;32811;52.382;5.270;2022-11-04T15:11:11;101043.66;;;8.92;100.00
47054;BME280;32811;52.382;5.270;2022-11-04T15:13:45;101047.03;;;8.87;100.00
47054;BME280;32811;52.382;5.270;2022-11-04T15:16:23;101052.13;;;8.84;100.00
47054;BME280;32811;52.382;5.270;2022-11-04T15:18:56;101053.78;;;8.79;100.00
47054;BME280;32811;52.382;5.270;2022-11-04T15:21:24;101052.88;;;8.77;100.00
47054;BME280;32811;52.382;5.270;2022-11-04T15:23:53;101055.41;;;8.73;100.00
47054;BME280;32811;52.382;5.270;2022-11-04T15:26:27;101063.13;;;8.75;100.00
47054;BME280;32811;52.382;5.270;2022-11-04T15:29:01;101075.97;;;8.72;100.00
47054;BME280;32811;52.382;5.270;2022-11-04T15:31:33;101059.53;;;8.62;100.00
47054;BME280;32811;52.382;5.270;2022-11-04T15:34:03;101077.59;;;8.65;100.00
47054;BME280;32811;52.382;5.270;2022-11-04T15:36:40;101066.28;;;8.56;100.00
47054;BME280;32811;52.382;5.270;2022-11-04T15:39:14;101077.50;;;8.61;100.00
47054;BME280;32811;52.382;5.270;2022-11-04T15:41:43;101082.66;;;8.61;100.00
47054;BME280;32811;52.382;5.270;2022-11-04T15:44:31;101089.44;;;8.57;100.00
47054;BME280;32811;52.382;5.270;2022-11-04T15:49:44;101095.34;;;8.50;100.00
47054;BME280;32811;52.382;5.270;2022-11-04T15:52:16;101093.63;;;8.49;100.00
47054;BME280;32811;52.382;5.270;2022-11-04T15:54:46;101102.13;;;8.45;100.00
47054;BME280;32811;52.382;5.270;2022-11-04T15:57:14;101102.94;;;8.42;100.00
47054;BME280;32811;52.382;5.270;2022-11-04T16:02:28;101104.47;;;8.34;100.00